createdAt,value
2023-04-08T00:00:20.000Z,4.777777777777779
2023-04-08T00:00:50.000Z,4.777777777777779
2023-04-08T00:01:21.000Z,4.777777777777779
2023-04-08T00:01:47.000Z,4.777777777777779
2023-04-08T00:02:11.000Z,4.777777777777779
2023-04-08T00:02:50.000Z,4.777777777777779
2023-04-08T00:03:15.000Z,4.777777777777779
2023-04-08T00:03:44.000Z,4.777777777777779
2023-04-08T00:04:07.000Z,4.722222222222222
2023-04-08T00:04:32.000Z,4.722222222222222
2023-04-08T00:05:00.000Z,4.722222222222222
2023-04-08T00:05:23.000Z,4.722222222222222
2023-04-08T00:05:50.000Z,4.61111111111111
2023-04-08T00:06:13.000Z,4.61111111111111
2023-04-08T00:06:40.000Z,4.61111111111111
2023-04-08T00:07:07.000Z,4.61111111111111
2023-04-08T00:07:32.000Z,4.61111111111111
2023-04-08T00:07:55.000Z,4.61111111111111
2023-04-08T00:08:20.000Z,4.61111111111111
2023-04-08T00:08:46.000Z,4.61111111111111
2023-04-08T00:09:15.000Z,4.61111111111111
2023-04-08T00:09:42.000Z,4.500000000000001
2023-04-08T00:10:08.000Z,4.500000000000001
2023-04-08T00:10:35.000Z,4.500000000000001
2023-04-08T00:11:02.000Z,4.500000000000001
2023-04-08T00:11:28.000Z,4.500000000000001
2023-04-08T00:11:46.000Z,4.500000000000001
2023-04-08T00:12:21.000Z,4.500000000000001
2023-04-08T00:12:51.000Z,4.500000000000001
2023-04-08T00:13:21.000Z,4.500000000000001
2023-04-08T00:13:47.000Z,4.500000000000001
2023-04-08T00:14:11.000Z,4.500000000000001
2023-04-08T00:14:41.000Z,4.500000000000001
2023-04-08T00:15:16.000Z,4.500000000000001
2023-04-08T00:15:46.000Z,4.388888888888888
2023-04-08T00:16:21.000Z,4.388888888888888
2023-04-08T00:16:51.000Z,4.388888888888888
2023-04-08T00:17:21.000Z,4.388888888888888
2023-04-08T00:17:47.000Z,4.388888888888888
2023-04-08T00:18:11.000Z,4.388888888888888
2023-04-08T00:18:41.000Z,4.388888888888888
2023-04-08T00:19:16.000Z,4.388888888888888
2023-04-08T00:19:46.000Z,4.388888888888888
2023-04-08T00:20:21.000Z,4.388888888888888
2023-04-08T00:20:51.000Z,4.388888888888888
2023-04-08T00:21:21.000Z,4.388888888888888
2023-04-08T00:21:47.000Z,4.388888888888888
2023-04-08T00:22:11.000Z,4.388888888888888
2023-04-08T00:22:41.000Z,4.388888888888888
2023-04-08T00:23:15.000Z,4.2777777777777795
2023-04-08T00:23:44.000Z,4.2777777777777795
2023-04-08T00:24:30.000Z,4.2777777777777795
2023-04-08T00:25:00.000Z,4.2777777777777795
2023-04-08T00:25:21.000Z,4.2777777777777795
2023-04-08T00:25:47.000Z,4.2777777777777795
2023-04-08T00:26:11.000Z,4.222222222222223
2023-04-08T00:26:41.000Z,4.222222222222223
2023-04-08T00:27:16.000Z,4.222222222222223
2023-04-08T00:27:46.000Z,4.222222222222223
2023-04-08T00:28:21.000Z,4.222222222222223
2023-04-08T00:28:51.000Z,4.222222222222223
2023-04-08T00:29:21.000Z,4.111111111111111
2023-04-08T00:29:47.000Z,4.111111111111111
2023-04-08T00:30:11.000Z,4.111111111111111
2023-04-08T00:30:41.000Z,4.111111111111111
2023-04-08T00:31:25.000Z,4.111111111111111
2023-04-08T00:31:55.000Z,4.111111111111111
2023-04-08T00:32:21.000Z,4.000000000000002
2023-04-08T00:32:51.000Z,4.000000000000002
2023-04-08T00:33:21.000Z,4.000000000000002
2023-04-08T00:33:47.000Z,3.888888888888889
2023-04-08T00:34:11.000Z,3.888888888888889
2023-04-08T00:34:41.000Z,3.888888888888889
2023-04-08T00:35:16.000Z,3.888888888888889
2023-04-08T00:35:46.000Z,3.7777777777777763
2023-04-08T00:36:21.000Z,3.7777777777777763
2023-04-08T00:36:51.000Z,3.7777777777777763
2023-04-08T00:37:21.000Z,3.7777777777777763
2023-04-08T00:37:50.000Z,3.7777777777777763
2023-04-08T00:38:13.000Z,3.7222222222222237
2023-04-08T00:38:40.000Z,3.7222222222222237
2023-04-08T00:39:16.000Z,3.7222222222222237
2023-04-08T00:39:46.000Z,3.7222222222222237
2023-04-08T00:40:21.000Z,3.7222222222222237
2023-04-08T00:40:51.000Z,3.7222222222222237
2023-04-08T00:41:21.000Z,3.7222222222222237
2023-04-08T00:41:47.000Z,3.7222222222222237
2023-04-08T00:42:11.000Z,3.7222222222222237
2023-04-08T00:42:41.000Z,3.7222222222222237
2023-04-08T00:43:16.000Z,3.7222222222222237
2023-04-08T00:43:46.000Z,3.7222222222222237
2023-04-08T00:44:21.000Z,3.7222222222222237
2023-04-08T00:44:51.000Z,3.7222222222222237
2023-04-08T00:45:26.000Z,3.7222222222222237
2023-04-08T00:45:48.000Z,3.7222222222222237
2023-04-08T00:46:08.000Z,3.7222222222222237
2023-04-08T00:46:35.000Z,3.7222222222222237
2023-04-08T00:47:02.000Z,3.7222222222222237
2023-04-08T00:47:28.000Z,3.7222222222222237
2023-04-08T00:47:46.000Z,3.7222222222222237
2023-04-08T00:48:21.000Z,3.7222222222222237
2023-04-08T00:48:51.000Z,3.7222222222222237
2023-04-08T00:49:21.000Z,3.611111111111111
2023-04-08T00:49:47.000Z,3.611111111111111
2023-04-08T00:50:11.000Z,3.611111111111111
2023-04-08T00:50:41.000Z,3.611111111111111
2023-04-08T00:51:16.000Z,3.611111111111111
2023-04-08T00:51:46.000Z,3.611111111111111
2023-04-08T00:52:21.000Z,3.611111111111111
2023-04-08T00:52:51.000Z,3.611111111111111
2023-04-08T00:53:21.000Z,3.611111111111111
2023-04-08T00:53:50.000Z,3.611111111111111
2023-04-08T00:54:11.000Z,3.611111111111111
2023-04-08T00:54:41.000Z,3.611111111111111
2023-04-08T00:55:16.000Z,3.611111111111111
2023-04-08T00:55:46.000Z,3.611111111111111
2023-04-08T00:56:21.000Z,3.611111111111111
2023-04-08T00:56:51.000Z,3.611111111111111
2023-04-08T00:57:21.000Z,3.611111111111111
2023-04-08T00:57:48.000Z,3.611111111111111
2023-04-08T00:58:11.000Z,3.611111111111111
2023-04-08T00:58:41.000Z,3.611111111111111
2023-04-08T00:59:16.000Z,3.611111111111111
2023-04-08T00:59:47.000Z,3.611111111111111
2023-04-08T01:00:21.000Z,3.611111111111111
2023-04-08T01:00:51.000Z,3.611111111111111
2023-04-08T01:01:21.000Z,3.611111111111111
2023-04-08T01:01:47.000Z,3.611111111111111
2023-04-08T01:02:11.000Z,3.611111111111111
2023-04-08T01:02:41.000Z,3.611111111111111
2023-04-08T01:03:16.000Z,3.4999999999999982
2023-04-08T01:03:46.000Z,3.4999999999999982
2023-04-08T01:04:21.000Z,3.4999999999999982
2023-04-08T01:04:51.000Z,3.4999999999999982
2023-04-08T01:05:21.000Z,3.4999999999999982
2023-04-08T01:05:47.000Z,3.4999999999999982
2023-04-08T01:06:08.000Z,3.4999999999999982
2023-04-08T01:06:35.000Z,3.4999999999999982
2023-04-08T01:07:02.000Z,3.4999999999999982
2023-04-08T01:07:31.000Z,3.4999999999999982
2023-04-08T01:08:06.000Z,3.4999999999999982
2023-04-08T01:08:36.000Z,3.4999999999999982
2023-04-08T01:09:06.000Z,3.3888888888888897
2023-04-08T01:09:41.000Z,3.3888888888888897
2023-04-08T01:10:11.000Z,3.3888888888888897
2023-04-08T01:10:41.000Z,3.3888888888888897
2023-04-08T01:11:16.000Z,3.3888888888888897
2023-04-08T01:11:46.000Z,3.3888888888888897
2023-04-08T01:12:21.000Z,3.3888888888888897
2023-04-08T01:12:51.000Z,3.3888888888888897
2023-04-08T01:13:30.000Z,3.3888888888888897
2023-04-08T01:13:47.000Z,3.3888888888888897
2023-04-08T01:14:11.000Z,3.3888888888888897
2023-04-08T01:14:41.000Z,3.3888888888888897
2023-04-08T01:15:16.000Z,3.3888888888888897
2023-04-08T01:15:46.000Z,3.3888888888888897
2023-04-08T01:16:21.000Z,3.3888888888888897
2023-04-08T01:16:51.000Z,3.3888888888888897
2023-04-08T01:17:21.000Z,3.3888888888888897
2023-04-08T01:17:47.000Z,3.3888888888888897
2023-04-08T01:18:11.000Z,3.4999999999999982
2023-04-08T01:18:41.000Z,3.4999999999999982
2023-04-08T01:19:16.000Z,3.4999999999999982
2023-04-08T01:19:44.000Z,3.4999999999999982
2023-04-08T01:20:07.000Z,3.4999999999999982
2023-04-08T01:20:32.000Z,3.4999999999999982
2023-04-08T01:21:00.000Z,3.4999999999999982
2023-04-08T01:21:24.000Z,3.3888888888888897
2023-04-08T01:21:49.000Z,3.3888888888888897
2023-04-08T01:22:11.000Z,3.3888888888888897
2023-04-08T01:22:41.000Z,3.3888888888888897
2023-04-08T01:23:16.000Z,3.3888888888888897
2023-04-08T01:23:46.000Z,3.3888888888888897
2023-04-08T01:24:21.000Z,3.3888888888888897
2023-04-08T01:24:51.000Z,3.3888888888888897
2023-04-08T01:25:21.000Z,3.3888888888888897
2023-04-08T01:25:47.000Z,3.3888888888888897
2023-04-08T01:26:11.000Z,3.3888888888888897
2023-04-08T01:26:41.000Z,3.3888888888888897
2023-04-08T01:27:25.000Z,3.3888888888888897
2023-04-08T01:27:55.000Z,3.3888888888888897
2023-04-08T01:28:20.000Z,3.277777777777777
2023-04-08T01:28:51.000Z,3.277777777777777
2023-04-08T01:29:21.000Z,3.277777777777777
2023-04-08T01:29:48.000Z,3.277777777777777
2023-04-08T01:30:11.000Z,3.3888888888888897
2023-04-08T01:30:41.000Z,3.3888888888888897
2023-04-08T01:31:16.000Z,3.3888888888888897
2023-04-08T01:31:46.000Z,3.3888888888888897
2023-04-08T01:32:21.000Z,3.3888888888888897
2023-04-08T01:32:51.000Z,3.3888888888888897
2023-04-08T01:33:21.000Z,3.3888888888888897
2023-04-08T01:33:47.000Z,3.3888888888888897
2023-04-08T01:34:20.000Z,3.4999999999999982
2023-04-08T01:34:50.000Z,3.4999999999999982
2023-04-08T01:35:15.000Z,3.4999999999999982
2023-04-08T01:35:44.000Z,3.611111111111111
2023-04-08T01:36:21.000Z,3.611111111111111
2023-04-08T01:36:51.000Z,3.611111111111111
2023-04-08T01:37:21.000Z,3.611111111111111
2023-04-08T01:37:47.000Z,3.611111111111111
2023-04-08T01:38:11.000Z,3.611111111111111
2023-04-08T01:38:41.000Z,3.611111111111111
2023-04-08T01:39:16.000Z,3.611111111111111
2023-04-08T01:39:46.000Z,3.611111111111111
2023-04-08T01:40:21.000Z,3.611111111111111
2023-04-08T01:40:51.000Z,3.611111111111111
2023-04-08T01:41:21.000Z,3.611111111111111
2023-04-08T01:41:47.000Z,3.611111111111111
2023-04-08T01:42:11.000Z,3.611111111111111
2023-04-08T01:42:41.000Z,3.611111111111111
2023-04-08T01:43:16.000Z,3.611111111111111
2023-04-08T01:43:46.000Z,3.611111111111111
2023-04-08T01:44:21.000Z,3.611111111111111
2023-04-08T01:44:51.000Z,3.611111111111111
2023-04-08T01:45:21.000Z,3.611111111111111
2023-04-08T01:45:47.000Z,3.611111111111111
2023-04-08T01:46:11.000Z,3.611111111111111
2023-04-08T01:46:41.000Z,3.611111111111111
2023-04-08T01:47:16.000Z,3.611111111111111
2023-04-08T01:47:44.000Z,3.611111111111111
2023-04-08T01:48:08.000Z,3.611111111111111
2023-04-08T01:48:35.000Z,3.611111111111111
2023-04-08T01:49:00.000Z,3.611111111111111
2023-04-08T01:49:23.000Z,3.611111111111111
2023-04-08T01:49:48.000Z,3.611111111111111
2023-04-08T01:50:11.000Z,3.611111111111111
2023-04-08T01:50:41.000Z,3.611111111111111
2023-04-08T01:51:16.000Z,3.611111111111111
2023-04-08T01:51:46.000Z,3.611111111111111
2023-04-08T01:52:21.000Z,3.611111111111111
2023-04-08T01:52:51.000Z,3.611111111111111
2023-04-08T01:53:21.000Z,3.611111111111111
2023-04-08T01:53:48.000Z,3.611111111111111
2023-04-08T01:54:11.000Z,3.611111111111111
2023-04-08T01:54:41.000Z,3.611111111111111
2023-04-08T01:55:25.000Z,3.611111111111111
2023-04-08T01:55:55.000Z,3.611111111111111
2023-04-08T01:56:20.000Z,3.611111111111111
2023-04-08T01:56:46.000Z,3.611111111111111
2023-04-08T01:57:15.000Z,3.611111111111111
2023-04-08T01:57:42.000Z,3.611111111111111
2023-04-08T01:58:08.000Z,3.611111111111111
2023-04-08T01:58:35.000Z,3.611111111111111
2023-04-08T01:59:02.000Z,3.611111111111111
2023-04-08T01:59:28.000Z,3.611111111111111
2023-04-08T01:59:55.000Z,3.611111111111111
2023-04-08T02:00:20.000Z,3.611111111111111
2023-04-08T02:00:51.000Z,3.611111111111111
2023-04-08T02:01:21.000Z,3.4999999999999982
2023-04-08T02:01:48.000Z,3.4999999999999982
2023-04-08T02:02:11.000Z,3.4999999999999982
2023-04-08T02:02:41.000Z,3.611111111111111
2023-04-08T02:03:16.000Z,3.611111111111111
2023-04-08T02:03:46.000Z,3.611111111111111
2023-04-08T02:04:21.000Z,3.611111111111111
2023-04-08T02:04:51.000Z,3.611111111111111
2023-04-08T02:05:22.000Z,3.611111111111111
2023-04-08T02:05:47.000Z,3.611111111111111
2023-04-08T02:06:20.000Z,3.611111111111111
2023-04-08T02:06:50.000Z,3.611111111111111
2023-04-08T02:07:15.000Z,3.4999999999999982
2023-04-08T02:07:44.000Z,3.4999999999999982
2023-04-08T02:08:07.000Z,3.4999999999999982
2023-04-08T02:08:32.000Z,3.611111111111111
2023-04-08T02:08:51.000Z,3.611111111111111
2023-04-08T02:09:21.000Z,3.611111111111111
2023-04-08T02:09:47.000Z,3.611111111111111
2023-04-08T02:10:11.000Z,3.611111111111111
2023-04-08T02:10:41.000Z,3.611111111111111
2023-04-08T02:11:17.000Z,3.611111111111111
2023-04-08T02:11:46.000Z,3.611111111111111
2023-04-08T02:12:21.000Z,3.611111111111111
2023-04-08T02:12:51.000Z,3.611111111111111
2023-04-08T02:13:21.000Z,3.611111111111111
2023-04-08T02:13:47.000Z,3.611111111111111
2023-04-08T02:14:11.000Z,3.611111111111111
2023-04-08T02:14:41.000Z,3.611111111111111
2023-04-08T02:15:16.000Z,3.611111111111111
2023-04-08T02:15:46.000Z,3.611111111111111
2023-04-08T02:16:21.000Z,3.611111111111111
2023-04-08T02:16:51.000Z,3.611111111111111
2023-04-08T02:17:21.000Z,3.611111111111111
2023-04-08T02:17:47.000Z,3.611111111111111
2023-04-08T02:18:11.000Z,3.611111111111111
2023-04-08T02:18:41.000Z,3.611111111111111
2023-04-08T02:19:16.000Z,3.611111111111111
2023-04-08T02:19:46.000Z,3.611111111111111
2023-04-08T02:20:21.000Z,3.611111111111111
2023-04-08T02:20:46.000Z,3.611111111111111
2023-04-08T02:21:15.000Z,3.611111111111111
2023-04-08T02:21:42.000Z,3.611111111111111
2023-04-08T02:22:08.000Z,3.7222222222222237
2023-04-08T02:22:35.000Z,3.7222222222222237
2023-04-08T02:23:02.000Z,3.7222222222222237
2023-04-08T02:23:28.000Z,3.7222222222222237
2023-04-08T02:23:55.000Z,3.7222222222222237
2023-04-08T02:24:20.000Z,3.7222222222222237
2023-04-08T02:24:46.000Z,3.7222222222222237
2023-04-08T02:25:15.000Z,3.7222222222222237
2023-04-08T02:25:42.000Z,3.7222222222222237
2023-04-08T02:26:08.000Z,3.7222222222222237
2023-04-08T02:26:35.000Z,3.7222222222222237
2023-04-08T02:27:02.000Z,3.7222222222222237
2023-04-08T02:27:28.000Z,3.7222222222222237
2023-04-08T02:27:55.000Z,3.7222222222222237
2023-04-08T02:28:20.000Z,3.7222222222222237
2023-04-08T02:28:46.000Z,3.7222222222222237
2023-04-08T02:29:06.000Z,3.7222222222222237
2023-04-08T02:29:41.000Z,3.7222222222222237
2023-04-08T02:30:11.000Z,3.7222222222222237
2023-04-08T02:30:41.000Z,3.7222222222222237
2023-04-08T02:31:16.000Z,3.7222222222222237
2023-04-08T02:31:46.000Z,3.7222222222222237
2023-04-08T02:32:21.000Z,3.7222222222222237
2023-04-08T02:32:51.000Z,3.7222222222222237
2023-04-08T02:33:21.000Z,3.7222222222222237
2023-04-08T02:33:47.000Z,3.7222222222222237
2023-04-08T02:34:11.000Z,3.7222222222222237
2023-04-08T02:34:50.000Z,3.7222222222222237
2023-04-08T02:35:15.000Z,3.7222222222222237
2023-04-08T02:35:44.000Z,3.7222222222222237
2023-04-08T02:36:07.000Z,3.7222222222222237
2023-04-08T02:36:32.000Z,3.7222222222222237
2023-04-08T02:36:51.000Z,3.7222222222222237
2023-04-08T02:37:22.000Z,3.7222222222222237
2023-04-08T02:37:47.000Z,3.7222222222222237
2023-04-08T02:38:12.000Z,3.7222222222222237
2023-04-08T02:38:41.000Z,3.7222222222222237
2023-04-08T02:39:16.000Z,3.7222222222222237
2023-04-08T02:39:46.000Z,3.7222222222222237
2023-04-08T02:40:21.000Z,3.7222222222222237
2023-04-08T02:40:51.000Z,3.7222222222222237
2023-04-08T02:41:21.000Z,3.7222222222222237
2023-04-08T02:41:47.000Z,3.7222222222222237
2023-04-08T02:42:11.000Z,3.7222222222222237
2023-04-08T02:42:46.000Z,3.7222222222222237
2023-04-08T02:43:12.000Z,3.7222222222222237
2023-04-08T02:43:30.000Z,3.7222222222222237
2023-04-08T02:43:55.000Z,3.7222222222222237
2023-04-08T02:44:20.000Z,3.7222222222222237
2023-04-08T02:44:46.000Z,3.7222222222222237
2023-04-08T02:45:15.000Z,3.7222222222222237
2023-04-08T02:45:42.000Z,3.7222222222222237
2023-04-08T02:46:08.000Z,3.7222222222222237
2023-04-08T02:46:35.000Z,3.7222222222222237
2023-04-08T02:47:02.000Z,3.7222222222222237
2023-04-08T02:47:28.000Z,3.7222222222222237
2023-04-08T02:47:46.000Z,3.611111111111111
2023-04-08T02:48:21.000Z,3.611111111111111
2023-04-08T02:48:51.000Z,3.611111111111111
2023-04-08T02:49:21.000Z,3.611111111111111
2023-04-08T02:49:47.000Z,3.611111111111111
2023-04-08T02:50:11.000Z,3.611111111111111
2023-04-08T02:50:41.000Z,3.611111111111111
2023-04-08T02:51:16.000Z,3.4999999999999982
2023-04-08T02:51:46.000Z,3.4999999999999982
2023-04-08T02:52:21.000Z,3.4999999999999982
2023-04-08T02:52:51.000Z,3.4999999999999982
2023-04-08T02:53:30.000Z,3.3888888888888897
2023-04-08T02:53:57.000Z,3.3888888888888897
2023-04-08T02:54:24.000Z,3.3888888888888897
2023-04-08T02:54:50.000Z,3.3888888888888897
2023-04-08T02:55:15.000Z,3.3888888888888897
2023-04-08T02:55:46.000Z,3.3888888888888897
2023-04-08T02:56:21.000Z,3.3888888888888897
2023-04-08T02:56:51.000Z,3.3888888888888897
2023-04-08T02:57:21.000Z,3.3888888888888897
2023-04-08T02:57:47.000Z,3.3888888888888897
2023-04-08T02:58:11.000Z,3.4999999999999982
2023-04-08T02:58:41.000Z,3.4999999999999982
2023-04-08T02:59:16.000Z,3.3888888888888897
2023-04-08T02:59:46.000Z,3.3888888888888897
2023-04-08T03:00:21.000Z,3.3888888888888897
2023-04-08T03:00:51.000Z,3.3888888888888897
2023-04-08T03:01:30.000Z,3.3888888888888897
2023-04-08T03:01:57.000Z,3.3888888888888897
2023-04-08T03:02:27.000Z,3.277777777777777
2023-04-08T03:02:51.000Z,3.277777777777777
2023-04-08T03:03:16.000Z,3.277777777777777
2023-04-08T03:03:46.000Z,3.277777777777777
2023-04-08T03:04:21.000Z,3.277777777777777
2023-04-08T03:04:51.000Z,3.277777777777777
2023-04-08T03:05:21.000Z,3.277777777777777
2023-04-08T03:05:48.000Z,3.277777777777777
2023-04-08T03:06:11.000Z,3.277777777777777
2023-04-08T03:06:41.000Z,3.277777777777777
2023-04-08T03:07:16.000Z,3.277777777777777
2023-04-08T03:07:46.000Z,3.277777777777777
2023-04-08T03:08:21.000Z,3.277777777777777
2023-04-08T03:09:00.000Z,3.277777777777777
2023-04-08T03:09:23.000Z,3.277777777777777
2023-04-08T03:09:48.000Z,3.277777777777777
2023-04-08T03:10:11.000Z,3.277777777777777
2023-04-08T03:10:41.000Z,3.277777777777777
2023-04-08T03:11:16.000Z,3.277777777777777
2023-04-08T03:11:46.000Z,3.277777777777777
2023-04-08T03:12:21.000Z,3.277777777777777
2023-04-08T03:12:51.000Z,3.277777777777777
2023-04-08T03:13:21.000Z,3.277777777777777
2023-04-08T03:13:47.000Z,3.277777777777777
2023-04-08T03:14:11.000Z,3.277777777777777
2023-04-08T03:14:41.000Z,3.277777777777777
2023-04-08T03:15:15.000Z,3.2222222222222205
2023-04-08T03:15:44.000Z,3.2222222222222205
2023-04-08T03:16:06.000Z,3.2222222222222205
2023-04-08T03:16:36.000Z,3.2222222222222205
2023-04-08T03:16:52.000Z,3.2222222222222205
2023-04-08T03:17:21.000Z,3.2222222222222205
2023-04-08T03:17:47.000Z,3.2222222222222205
2023-04-08T03:18:11.000Z,3.2222222222222205
2023-04-08T03:18:41.000Z,3.2222222222222205
2023-04-08T03:19:16.000Z,3.2222222222222205
2023-04-08T03:19:46.000Z,3.2222222222222205
2023-04-08T03:20:21.000Z,3.2222222222222205
2023-04-08T03:20:51.000Z,3.2222222222222205
2023-04-08T03:21:21.000Z,3.2222222222222205
2023-04-08T03:21:47.000Z,3.2222222222222205
2023-04-08T03:22:08.000Z,3.2222222222222205
2023-04-08T03:22:35.000Z,3.2222222222222205
2023-04-08T03:23:02.000Z,3.2222222222222205
2023-04-08T03:23:28.000Z,3.2222222222222205
2023-04-08T03:23:55.000Z,3.2222222222222205
2023-04-08T03:24:20.000Z,3.2222222222222205
2023-04-08T03:24:46.000Z,3.2222222222222205
2023-04-08T03:25:06.000Z,3.2222222222222205
2023-04-08T03:25:41.000Z,3.2222222222222205
2023-04-08T03:26:11.000Z,3.2222222222222205
2023-04-08T03:26:41.000Z,3.2222222222222205
2023-04-08T03:27:16.000Z,3.2222222222222205
2023-04-08T03:27:46.000Z,3.277777777777777
2023-04-08T03:28:21.000Z,3.277777777777777
2023-04-08T03:28:51.000Z,3.277777777777777
2023-04-08T03:29:21.000Z,3.277777777777777
2023-04-08T03:29:47.000Z,3.277777777777777
2023-04-08T03:30:11.000Z,3.277777777777777
2023-04-08T03:30:50.000Z,3.277777777777777
2023-04-08T03:31:15.000Z,3.277777777777777
2023-04-08T03:31:44.000Z,3.277777777777777
2023-04-08T03:32:07.000Z,3.277777777777777
2023-04-08T03:32:35.000Z,3.277777777777777
2023-04-08T03:33:00.000Z,3.277777777777777
2023-04-08T03:33:24.000Z,3.277777777777777
2023-04-08T03:33:50.000Z,3.277777777777777
2023-04-08T03:34:13.000Z,3.277777777777777
2023-04-08T03:34:41.000Z,3.277777777777777
2023-04-08T03:35:16.000Z,3.277777777777777
2023-04-08T03:35:46.000Z,3.277777777777777
2023-04-08T03:36:21.000Z,3.277777777777777
2023-04-08T03:36:51.000Z,3.277777777777777
2023-04-08T03:37:21.000Z,3.277777777777777
2023-04-08T03:37:48.000Z,3.277777777777777
2023-04-08T03:38:11.000Z,3.3888888888888897
2023-04-08T03:38:41.000Z,3.3888888888888897
2023-04-08T03:39:16.000Z,3.4999999999999982
2023-04-08T03:39:46.000Z,3.4999999999999982
2023-04-08T03:40:20.000Z,3.4999999999999982
2023-04-08T03:40:46.000Z,3.4999999999999982
2023-04-08T03:41:15.000Z,3.4999999999999982
2023-04-08T03:41:42.000Z,3.4999999999999982
2023-04-08T03:42:08.000Z,3.4999999999999982
2023-04-08T03:42:26.000Z,3.4999999999999982
2023-04-08T03:42:51.000Z,3.611111111111111
2023-04-08T03:43:16.000Z,3.611111111111111
2023-04-08T03:43:46.000Z,3.611111111111111
2023-04-08T03:44:21.000Z,3.611111111111111
2023-04-08T03:44:51.000Z,3.611111111111111
2023-04-08T03:45:21.000Z,3.611111111111111
2023-04-08T03:45:47.000Z,3.611111111111111
2023-04-08T03:46:11.000Z,3.611111111111111
2023-04-08T03:46:41.000Z,3.611111111111111
2023-04-08T03:47:16.000Z,3.611111111111111
2023-04-08T03:47:46.000Z,3.611111111111111
2023-04-08T03:48:20.000Z,3.611111111111111
2023-04-08T03:48:46.000Z,3.611111111111111
2023-04-08T03:49:15.000Z,3.611111111111111
2023-04-08T03:49:42.000Z,3.611111111111111
2023-04-08T03:50:08.000Z,3.611111111111111
2023-04-08T03:50:35.000Z,3.611111111111111
2023-04-08T03:51:02.000Z,3.611111111111111
2023-04-08T03:51:28.000Z,3.611111111111111
2023-04-08T03:51:55.000Z,3.611111111111111
2023-04-08T03:52:20.000Z,3.611111111111111
2023-04-08T03:52:46.000Z,3.611111111111111
2023-04-08T03:53:15.000Z,3.611111111111111
2023-04-08T03:53:41.000Z,3.7222222222222237
2023-04-08T03:54:11.000Z,3.7222222222222237
2023-04-08T03:54:42.000Z,3.7222222222222237
2023-04-08T03:55:16.000Z,3.7222222222222237
2023-04-08T03:55:46.000Z,3.7222222222222237
2023-04-08T03:56:21.000Z,3.7222222222222237
2023-04-08T03:56:51.000Z,3.7222222222222237
2023-04-08T03:57:21.000Z,3.7222222222222237
2023-04-08T03:57:47.000Z,3.7222222222222237
2023-04-08T03:58:11.000Z,3.7222222222222237
2023-04-08T03:58:41.000Z,3.7222222222222237
2023-04-08T03:59:16.000Z,3.7222222222222237
2023-04-08T03:59:55.000Z,3.7222222222222237
2023-04-08T04:00:20.000Z,3.7222222222222237
2023-04-08T04:00:46.000Z,3.7222222222222237
2023-04-08T04:01:15.000Z,3.7222222222222237
2023-04-08T04:01:42.000Z,3.7222222222222237
2023-04-08T04:02:08.000Z,3.7777777777777763
2023-04-08T04:02:35.000Z,3.7777777777777763
2023-04-08T04:03:02.000Z,3.7777777777777763
2023-04-08T04:03:28.000Z,3.7777777777777763
2023-04-08T04:03:55.000Z,3.7777777777777763
2023-04-08T04:04:20.000Z,3.7777777777777763
2023-04-08T04:04:46.000Z,3.7777777777777763
2023-04-08T04:05:15.000Z,3.7777777777777763
2023-04-08T04:05:41.000Z,3.7777777777777763
2023-04-08T04:06:11.000Z,3.7777777777777763
2023-04-08T04:06:41.000Z,3.7777777777777763
2023-04-08T04:07:16.000Z,3.888888888888889
2023-04-08T04:07:46.000Z,3.888888888888889
2023-04-08T04:08:21.000Z,3.7777777777777763
2023-04-08T04:08:51.000Z,3.7777777777777763
2023-04-08T04:09:21.000Z,3.7777777777777763
2023-04-08T04:09:47.000Z,3.7777777777777763
2023-04-08T04:10:11.000Z,3.7777777777777763
2023-04-08T04:10:41.000Z,3.7777777777777763
2023-04-08T04:11:15.000Z,3.7777777777777763
2023-04-08T04:11:44.000Z,3.7777777777777763
2023-04-08T04:12:07.000Z,3.7777777777777763
2023-04-08T04:12:32.000Z,3.7777777777777763
2023-04-08T04:13:00.000Z,3.7777777777777763
2023-04-08T04:13:21.000Z,3.7777777777777763
2023-04-08T04:13:47.000Z,3.7777777777777763
2023-04-08T04:14:11.000Z,3.7777777777777763
2023-04-08T04:14:41.000Z,3.7777777777777763
2023-04-08T04:15:16.000Z,3.7777777777777763
2023-04-08T04:15:46.000Z,3.7777777777777763
2023-04-08T04:16:21.000Z,3.7777777777777763
2023-04-08T04:16:51.000Z,3.7777777777777763
2023-04-08T04:17:21.000Z,3.7777777777777763
2023-04-08T04:17:47.000Z,3.7777777777777763
2023-04-08T04:18:11.000Z,3.7777777777777763
2023-04-08T04:18:41.000Z,3.7777777777777763
2023-04-08T04:19:25.000Z,3.7777777777777763
2023-04-08T04:19:55.000Z,3.7777777777777763
2023-04-08T04:20:21.000Z,3.7777777777777763
2023-04-08T04:20:51.000Z,3.7777777777777763
2023-04-08T04:21:21.000Z,3.7777777777777763
2023-04-08T04:21:48.000Z,3.7777777777777763
2023-04-08T04:22:11.000Z,3.7777777777777763
2023-04-08T04:22:41.000Z,3.7777777777777763
2023-04-08T04:23:16.000Z,3.7777777777777763
2023-04-08T04:23:46.000Z,3.7777777777777763
2023-04-08T04:24:21.000Z,3.7777777777777763
2023-04-08T04:24:51.000Z,3.7777777777777763
2023-04-08T04:25:21.000Z,3.7777777777777763